createdAt,value
2019-01-21T00:01:27.219Z,39.8
2019-01-21T00:04:33.173Z,39.8
2019-01-21T00:07:39.105Z,39.7
2019-01-21T00:10:45.105Z,39.8
2019-01-21T00:13:51.276Z,39.8
2019-01-21T00:16:57.357Z,39.8
2019-01-21T00:20:03.381Z,39.8
2019-01-21T00:23:09.452Z,39.8
2019-01-21T00:26:15.567Z,39.8
2019-01-21T00:29:21.785Z,39.8
2019-01-21T00:32:27.731Z,39.7
2019-01-21T00:35:33.693Z,39.8
2019-01-21T00:38:39.653Z,39.8
2019-01-21T00:41:45.522Z,39.8
2019-01-21T00:44:51.685Z,39.8
2019-01-21T00:47:57.589Z,39.8
2019-01-21T00:51:03.645Z,39.9
2019-01-21T00:54:09.653Z,39.8
2019-01-21T00:57:15.526Z,39.8
2019-01-21T01:00:21.586Z,39.8
2019-01-21T01:03:30.305Z,39.9
2019-01-21T01:06:36.181Z,39.9
2019-01-21T01:09:42.320Z,40.2
2019-01-21T01:12:48.260Z,40.3
2019-01-21T01:15:54.231Z,40.2
2019-01-21T01:19:00.104Z,40.2
2019-01-21T01:22:06.049Z,40.1
2019-01-21T01:25:11.982Z,40
2019-01-21T01:28:17.975Z,40
2019-01-21T01:31:23.840Z,39.9
2019-01-21T01:34:29.720Z,39.8
2019-01-21T01:37:35.744Z,39.7
2019-01-21T01:40:41.621Z,39.7
2019-01-21T01:43:47.565Z,39.7
2019-01-21T01:46:53.531Z,39.6
2019-01-21T01:49:59.587Z,39.5
2019-01-21T01:53:05.558Z,39.5
2019-01-21T01:56:11.578Z,39.4
2019-01-21T01:59:17.565Z,39.3
2019-01-21T02:02:23.728Z,39.2
2019-01-21T02:05:30.112Z,39.2
2019-01-21T02:08:36.070Z,39.1
2019-01-21T02:11:42.024Z,39.1
2019-01-21T02:14:48.384Z,39
2019-01-21T02:17:55.573Z,39
2019-01-21T02:21:01.445Z,39
2019-01-21T02:24:07.386Z,38.9
2019-01-21T02:27:13.256Z,38.9
2019-01-21T02:30:20.948Z,38.8
2019-01-21T02:33:26.826Z,38.7
2019-01-21T02:36:32.969Z,38.7
2019-01-21T02:39:39.031Z,38.6
2019-01-21T02:42:46.427Z,38.6
2019-01-21T02:45:52.487Z,38.6
2019-01-21T02:48:58.548Z,38.5
2019-01-21T02:52:04.445Z,38.5
2019-01-21T02:55:11.503Z,38.5
2019-01-21T02:58:17.550Z,38.5
2019-01-21T03:01:23.421Z,38.5
2019-01-21T03:04:29.469Z,38.4
2019-01-21T03:07:35.397Z,38.4
2019-01-21T03:10:41.388Z,38.4
2019-01-21T03:13:47.458Z,38.4
2019-01-21T03:16:53.509Z,38.3
2019-01-21T03:19:59.403Z,38.3
2019-01-21T03:23:05.327Z,38.3
2019-01-21T03:26:11.592Z,38.3
2019-01-21T03:29:18.372Z,38.3
2019-01-21T03:32:24.354Z,38.2
2019-01-21T03:35:30.397Z,38.2
2019-01-21T03:38:36.662Z,38.2
2019-01-21T03:41:44.361Z,38.1
2019-01-21T03:44:50.321Z,38.1
2019-01-21T03:47:56.399Z,38.1
2019-01-21T03:51:02.458Z,38
2019-01-21T03:54:09.641Z,38
2019-01-21T03:57:15.603Z,37.9
2019-01-21T04:00:21.565Z,37.8
2019-01-21T04:03:27.510Z,37.7
2019-01-21T04:06:33.708Z,37.6
2019-01-21T04:09:39.737Z,37.5
2019-01-21T04:12:45.651Z,37.4
2019-01-21T04:15:51.656Z,37.3
2019-01-21T04:18:57.664Z,37.3
2019-01-21T04:22:03.675Z,37.2
2019-01-21T04:25:09.839Z,37.1
2019-01-21T04:28:16.004Z,37.1
2019-01-21T04:31:21.966Z,37.1
2019-01-21T04:34:30.276Z,37
2019-01-21T04:37:39.306Z,37
2019-01-21T04:40:45.267Z,37
2019-01-21T04:43:51.330Z,36.9
2019-01-21T04:46:57.288Z,36.9
2019-01-21T04:50:03.453Z,36.8
2019-01-21T04:53:10.427Z,36.8
2019-01-21T04:56:16.407Z,36.8
2019-01-21T04:59:22.460Z,36.7
2019-01-21T05:02:28.381Z,36.6
2019-01-21T05:05:35.911Z,36.6
2019-01-21T05:08:41.978Z,36.6
2019-01-21T05:11:48.444Z,36.6
2019-01-21T05:14:54.321Z,36.3
2019-01-21T05:18:00.368Z,36.4
2019-01-21T05:21:06.424Z,36.4
2019-01-21T05:24:12.298Z,36.4
2019-01-21T05:27:18.358Z,36.3
2019-01-21T05:30:26.979Z,36.3
2019-01-21T05:33:34.729Z,36.3
2019-01-21T05:36:40.831Z,36.4
2019-01-21T05:39:46.997Z,36.3
2019-01-21T05:42:52.879Z,36.3
2019-01-21T05:45:58.916Z,36.2
2019-01-21T05:49:07.740Z,36.1
2019-01-21T05:52:13.706Z,36.2
2019-01-21T05:55:19.659Z,36.1
2019-01-21T05:58:25.532Z,36.1
2019-01-21T06:01:31.481Z,36
2019-01-21T06:04:37.670Z,36.1
2019-01-21T06:07:43.815Z,36.8
2019-01-21T06:10:49.888Z,36
2019-01-21T06:13:58.653Z,36.2
2019-01-21T06:17:04.543Z,36
2019-01-21T06:20:10.517Z,36
2019-01-21T06:23:16.442Z,36.3
2019-01-21T06:26:22.543Z,35.9
2019-01-21T06:29:28.594Z,36.1
2019-01-21T06:32:34.474Z,36.5
2019-01-21T06:35:40.582Z,36.4
2019-01-21T06:38:46.682Z,35.7
2019-01-21T06:41:52.635Z,35.5
2019-01-21T06:44:58.831Z,35.6
2019-01-21T06:48:04.857Z,35.3
2019-01-21T06:51:13.492Z,35.7
2019-01-21T06:54:19.460Z,35.2
2019-01-21T06:57:25.611Z,35
2019-01-21T07:00:31.568Z,35
2019-01-21T07:03:40.497Z,35.2
2019-01-21T07:06:46.395Z,36.8
2019-01-21T07:09:53.442Z,34.7
2019-01-21T07:12:59.320Z,35
2019-01-21T07:16:07.624Z,34.8
2019-01-21T07:19:13.908Z,34.4
2019-01-21T07:22:19.806Z,34.8
2019-01-21T07:25:25.907Z,34.6
2019-01-21T07:28:31.865Z,34.7
2019-01-21T07:31:37.734Z,34.6
2019-01-21T07:34:43.788Z,34.5
2019-01-21T07:37:49.845Z,34.8
2019-01-21T07:40:56.748Z,34.5
2019-01-21T07:44:02.685Z,34.9
2019-01-21T07:47:08.652Z,34.8
2019-01-21T07:50:14.603Z,34.9
2019-01-21T07:53:20.473Z,35.2
2019-01-21T07:56:26.525Z,35.1
2019-01-21T07:59:32.434Z,34.8
2019-01-21T08:02:38.650Z,34.9
2019-01-21T08:05:44.620Z,34.7
2019-01-21T08:08:50.564Z,35.5
2019-01-21T08:11:56.436Z,35.3
2019-01-21T08:15:02.390Z,35.4
2019-01-21T08:18:10.918Z,34.8
2019-01-21T08:21:16.863Z,34.8
2019-01-21T08:24:22.821Z,35.4
2019-01-21T08:27:28.786Z,34.7
2019-01-21T08:30:34.761Z,34.5
2019-01-21T08:33:41.009Z,35
2019-01-21T08:36:46.877Z,34.7
2019-01-21T08:39:53.032Z,34.5
2019-01-21T08:42:59.102Z,34.4
2019-01-21T08:46:05.132Z,34.5
2019-01-21T08:49:11.114Z,34.6
2019-01-21T08:52:17.068Z,34.3
2019-01-21T08:55:23.237Z,34.6
2019-01-21T08:58:29.190Z,34.6
2019-01-21T09:01:35.167Z,34.9
2019-01-21T09:04:42.540Z,34.2
2019-01-21T09:07:48.412Z,34.2
2019-01-21T09:10:54.369Z,34.7
2019-01-21T09:14:00.522Z,34.7
2019-01-21T09:17:06.793Z,33.9
2019-01-21T09:20:12.860Z,33.9
2019-01-21T09:23:18.828Z,33.9
2019-01-21T09:26:24.780Z,33.8
2019-01-21T09:29:31.614Z,34
2019-01-21T09:32:38.536Z,33.8
2019-01-21T09:35:44.804Z,33.8
2019-01-21T09:38:50.865Z,33.7
2019-01-21T09:41:56.823Z,33.6
2019-01-21T09:45:02.864Z,33.8
2019-01-21T09:48:08.798Z,34.1
2019-01-21T09:51:15.117Z,34
2019-01-21T09:54:21.171Z,33.9
2019-01-21T09:57:27.140Z,34.1
2019-01-21T10:00:34.649Z,33.7
2019-01-21T10:03:40.589Z,33.5
2019-01-21T10:06:46.502Z,33.5
2019-01-21T10:09:55.843Z,33.4
2019-01-21T10:13:01.722Z,33.5
2019-01-21T10:16:07.703Z,33.5
2019-01-21T10:19:13.581Z,33.5
2019-01-21T10:22:19.488Z,33.5
2019-01-21T10:25:25.362Z,33.7
2019-01-21T10:28:31.435Z,33.7
2019-01-21T10:31:37.498Z,33.8
2019-01-21T10:34:43.459Z,34
2019-01-21T10:37:49.534Z,33.8
2019-01-21T10:40:56.446Z,34.1
2019-01-21T10:44:03.798Z,33.9
2019-01-21T10:47:09.975Z,33.9
2019-01-21T10:50:16.041Z,33.9
2019-01-21T10:53:22.080Z,33.9
2019-01-21T10:56:27.981Z,34.1
2019-01-21T10:59:34.112Z,35
2019-01-21T11:02:40.091Z,34
2019-01-21T11:05:46.369Z,33.8
2019-01-21T11:08:52.299Z,33.5
2019-01-21T11:12:02.156Z,33.6
2019-01-21T11:15:09.223Z,33.5
2019-01-21T11:18:15.116Z,33.6
2019-01-21T11:21:22.068Z,33.6
2019-01-21T11:24:31.710Z,33.5
2019-01-21T11:27:37.694Z,33.7
2019-01-21T11:30:43.630Z,33.5
2019-01-21T11:33:49.516Z,34.1
2019-01-21T11:36:55.573Z,33.6
2019-01-21T11:40:01.549Z,33.5
2019-01-21T11:43:09.003Z,34
2019-01-21T11:46:15.315Z,33.9
2019-01-21T11:49:21.342Z,33.9
2019-01-21T11:52:27.296Z,33.7
2019-01-21T11:55:33.358Z,33.4
2019-01-21T11:58:39.303Z,33.6
2019-01-21T12:01:45.501Z,33.7
2019-01-21T12:04:51.597Z,33.7
2019-01-21T12:07:57.711Z,33.4
2019-01-21T12:11:03.926Z,33.1
2019-01-21T12:14:11.211Z,33.3
2019-01-21T12:17:17.095Z,33.6
2019-01-21T12:20:25.750Z,33.4
2019-01-21T12:23:31.870Z,33.2
2019-01-21T12:26:38.201Z,33.2
2019-01-21T12:29:44.243Z,33.2
2019-01-21T12:32:50.220Z,33.1
2019-01-21T12:35:56.364Z,33.2
2019-01-21T12:39:02.237Z,33.2
2019-01-21T12:42:08.391Z,33.1
2019-01-21T12:45:14.458Z,33.3
2019-01-21T12:48:20.516Z,33.4
2019-01-21T12:51:26.579Z,33.3
2019-01-21T12:54:32.788Z,33.6
2019-01-21T12:57:38.811Z,33.5
2019-01-21T13:00:44.714Z,33.6
2019-01-21T13:03:50.721Z,33.5
2019-01-21T13:06:56.595Z,33.5
2019-01-21T13:10:07.575Z,33.5
2019-01-21T13:13:13.825Z,33.5
2019-01-21T13:16:19.766Z,33.3
2019-01-21T13:19:25.753Z,33.2
2019-01-21T13:22:31.652Z,33
2019-01-21T13:25:37.872Z,33.1
2019-01-21T13:28:43.833Z,33.2
2019-01-21T13:31:49.812Z,33
2019-01-21T13:34:55.843Z,33.2
2019-01-21T13:38:01.802Z,33.2
2019-01-21T13:41:07.761Z,33.3
2019-01-21T13:44:13.925Z,33.1
2019-01-21T13:47:19.892Z,33.1
2019-01-21T13:50:25.948Z,32.9
2019-01-21T13:53:38.367Z,33.2
2019-01-21T13:56:44.238Z,33.1
2019-01-21T13:59:50.293Z,33.1
2019-01-21T14:02:56.433Z,33.4
2019-01-21T14:06:02.625Z,33
2019-01-21T14:09:08.573Z,33
2019-01-21T14:12:17.814Z,32.9
2019-01-21T14:15:23.876Z,32.9
2019-01-21T14:18:30.477Z,32.9
2019-01-21T14:21:37.390Z,33.3
2019-01-21T14:24:43.827Z,32.9
2019-01-21T14:27:49.953Z,32.8
2019-01-21T14:30:57.931Z,32.9
2019-01-21T14:34:04.493Z,33
2019-01-21T14:37:10.533Z,32.9
2019-01-21T14:40:16.970Z,33
2019-01-21T14:43:22.933Z,33
2019-01-21T14:46:28.997Z,33
2019-01-21T14:49:34.878Z,33
2019-01-21T14:52:41.031Z,33.1
2019-01-21T14:55:47.113Z,33
2019-01-21T14:58:53.648Z,33
2019-01-21T15:01:59.750Z,33
2019-01-21T15:05:05.903Z,33.3
2019-01-21T15:08:12.081Z,33.2
2019-01-21T15:11:18.473Z,33.2
2019-01-21T15:14:25.306Z,33.1
2019-01-21T15:17:31.586Z,33.2
2019-01-21T15:20:37.955Z,33.2
2019-01-21T15:23:44.233Z,33.2
2019-01-21T15:26:50.841Z,33.2
2019-01-21T15:29:57.056Z,33.5
2019-01-21T15:33:03.608Z,33.3
2019-01-21T15:36:10.099Z,33.1
2019-01-21T15:39:16.658Z,33.1
2019-01-21T15:42:23.023Z,33.3
2019-01-21T15:45:29.590Z,33.2
2019-01-21T15:48:36.065Z,33
2019-01-21T15:51:42.129Z,33.1
2019-01-21T15:54:48.191Z,33
2019-01-21T15:57:56.174Z,32.8
2019-01-21T16:01:02.167Z,32.7
2019-01-21T16:04:08.039Z,32.8
2019-01-21T16:07:13.989Z,32.6
2019-01-21T16:10:20.041Z,32.6
2019-01-21T16:13:28.562Z,32.6
2019-01-21T16:16:34.430Z,32.6
2019-01-21T16:19:40.379Z,32.6
2019-01-21T16:22:46.250Z,32.6
2019-01-21T16:25:52.190Z,32.5
2019-01-21T16:28:58.152Z,32.5
2019-01-21T16:32:04.118Z,32.4
2019-01-21T16:35:10.174Z,32.4
2019-01-21T16:38:16.045Z,32.4
2019-01-21T16:41:21.991Z,32.3
2019-01-21T16:44:27.951Z,32.3
2019-01-21T16:47:34.120Z,32.2
2019-01-21T16:50:40.112Z,32.1
2019-01-21T16:53:46.134Z,32.1
2019-01-21T16:56:52.017Z,32.1
2019-01-21T16:59:57.948Z,32.1
2019-01-21T17:03:04.846Z,32.2
2019-01-21T17:06:11.921Z,32.2
2019-01-21T17:09:19.215Z,32.4
2019-01-21T17:12:25.381Z,32.4
2019-01-21T17:15:31.336Z,32.1
2019-01-21T17:18:37.298Z,32.1
2019-01-21T17:21:43.364Z,32.1
2019-01-21T17:24:49.325Z,32.1
2019-01-21T17:27:55.267Z,32
2019-01-21T17:31:01.236Z,32.1
2019-01-21T17:34:07.143Z,32
2019-01-21T17:37:13.066Z,32
2019-01-21T17:40:19.124Z,31.8
2019-01-21T17:43:25.185Z,31.9
2019-01-21T17:46:35.133Z,31.9
2019-01-21T17:49:41.082Z,31.9
2019-01-21T17:52:46.984Z,32
2019-01-21T17:55:52.999Z,32
2019-01-21T17:58:59.162Z,32
2019-01-21T18:02:05.103Z,32
2019-01-21T18:05:11.083Z,32.1
2019-01-21T18:08:18.285Z,32.1
2019-01-21T18:11:24.399Z,32.2
2019-01-21T18:14:30.275Z,32.2
2019-01-21T18:17:36.374Z,32.2
2019-01-21T18:20:42.226Z,32.3
2019-01-21T18:23:48.199Z,32.3
2019-01-21T18:26:54.055Z,32.4
2019-01-21T18:30:00.064Z,32.4
2019-01-21T18:33:07.701Z,32.3
2019-01-21T18:36:13.759Z,32.4
2019-01-21T18:39:20.956Z,32.5
2019-01-21T18:42:26.898Z,32.5
2019-01-21T18:45:32.774Z,32.5
2019-01-21T18:48:38.716Z,32.6
2019-01-21T18:51:47.444Z,32.7
2019-01-21T18:54:53.317Z,32.8
2019-01-21T18:57:59.214Z,32.9
2019-01-21T19:01:05.231Z,32.9
2019-01-21T19:04:11.296Z,32.9
2019-01-21T19:07:17.198Z,33
2019-01-21T19:10:23.098Z,33
2019-01-21T19:13:29.060Z,33
2019-01-21T19:16:34.931Z,33.1
2019-01-21T19:19:40.894Z,33.1
2019-01-21T19:22:46.847Z,33.2
2019-01-21T19:25:52.900Z,33.3
2019-01-21T19:28:58.855Z,33.3
2019-01-21T19:32:04.826Z,33.4
2019-01-21T19:35:10.898Z,33.4
2019-01-21T19:38:16.839Z,33.4
2019-01-21T19:41:22.801Z,33.5
2019-01-21T19:44:28.670Z,33.5
2019-01-21T19:47:34.717Z,33.6
2019-01-21T19:50:40.590Z,33.6
2019-01-21T19:53:46.537Z,33.7
2019-01-21T19:56:52.408Z,33.7
2019-01-21T19:59:58.558Z,33.7
2019-01-21T20:03:04.518Z,33.8
2019-01-21T20:06:10.492Z,33.8
2019-01-21T20:09:16.357Z,33.9
2019-01-21T20:12:22.401Z,33.8
2019-01-21T20:15:28.487Z,33.9
2019-01-21T20:18:34.419Z,33.9
2019-01-21T20:21:40.376Z,33.9
2019-01-21T20:24:46.262Z,34.1
2019-01-21T20:27:52.188Z,34.1
2019-01-21T20:30:58.073Z,34.2
2019-01-21T20:34:04.012Z,34.1
2019-01-21T20:37:09.895Z,34.3
2019-01-21T20:40:15.828Z,34.3
2019-01-21T20:43:21.787Z,34.4
2019-01-21T20:46:27.924Z,34.4
2019-01-21T20:49:33.912Z,34.4
2019-01-21T20:52:39.869Z,34.4
2019-01-21T20:55:45.748Z,34.5
2019-01-21T20:58:51.785Z,34.6
2019-01-21T21:01:57.745Z,34.7
2019-01-21T21:05:03.705Z,34.6
2019-01-21T21:08:09.597Z,34.7
2019-01-21T21:11:15.527Z,34.7
2019-01-21T21:14:21.589Z,34.8
2019-01-21T21:17:27.462Z,34.8
2019-01-21T21:20:33.407Z,34.9
2019-01-21T21:23:39.362Z,34.9
2019-01-21T21:26:45.326Z,34.9
2019-01-21T21:29:51.385Z,35
2019-01-21T21:32:57.548Z,35
2019-01-21T21:36:03.711Z,35.1
2019-01-21T21:39:09.670Z,35
2019-01-21T21:42:15.731Z,35.1
2019-01-21T21:45:21.999Z,35.1
2019-01-21T21:48:32.568Z,35.2
2019-01-21T21:51:38.497Z,35.2
2019-01-21T21:54:44.593Z,35.3
2019-01-21T21:57:51.002Z,35.3
2019-01-21T22:00:58.698Z,35.3
2019-01-21T22:04:04.568Z,35.3
2019-01-21T22:07:10.578Z,35.4
2019-01-21T22:10:21.567Z,35.5
2019-01-21T22:13:28.644Z,35.4
2019-01-21T22:16:34.600Z,35.5
2019-01-21T22:19:40.575Z,35.6
2019-01-21T22:22:46.520Z,35.6
2019-01-21T22:25:54.631Z,35.6
2019-01-21T22:29:00.590Z,35.6
2019-01-21T22:32:06.557Z,35.7
2019-01-21T22:35:12.615Z,35.8
2019-01-21T22:38:20.106Z,35.8
2019-01-21T22:41:29.099Z,35.8
2019-01-21T22:44:35.403Z,35.8
2019-01-21T22:47:41.282Z,35.9
2019-01-21T22:50:49.990Z,35.9
2019-01-21T22:53:55.965Z,36
2019-01-21T22:57:02.122Z,36
2019-01-21T23:00:08.111Z,35.9
2019-01-21T23:03:15.161Z,36
2019-01-21T23:06:21.034Z,36.1
2019-01-21T23:09:27.074Z,36.2
2019-01-21T23:12:33.040Z,36.2
2019-01-21T23:15:39.201Z,36.2
2019-01-21T23:18:45.071Z,36.3
2019-01-21T23:21:51.027Z,36.3
2019-01-21T23:24:57.408Z,36.3
2019-01-21T23:28:03.452Z,36.3
2019-01-21T23:31:09.531Z,36.4
2019-01-21T23:34:18.662Z,36.4
2019-01-21T23:37:25.244Z,36.4
2019-01-21T23:40:31.179Z,36.4
2019-01-21T23:43:37.241Z,36.4
2019-01-21T23:46:43.301Z,36.5
2019-01-21T23:49:50.942Z,36.5
2019-01-21T23:52:57.172Z,36.5
2019-01-21T23:56:03.043Z,36.5
2019-01-21T23:59:09.097Z,36.6
